Flight Track Log - Related Links

Times and Time Zones

All times are in EDT time to prevent confusion due to time zone crossing. See the TSO594 flight status page for this flight to view local times or setup timezone preferences in your user account.

Time Position Orientation Groundspeed Altitude Reporting Facility
EDT Latitude Longitude Course Direction KTS MPH feet Rate Location/Type
Tue 04:28:52 PM 23.0883 -81.0364 31° Northeast 422 486 10,300  Level Miami Center
Tue 04:29:52 PM 23.1364 -80.9567 57° Northeast 344 396 11,200 1,050 Climbing Miami Center
Tue 04:30:00 PM 25.7922 -79.6802 30° Northeast  Level Estimated
Tue 04:30:52 PM 23.1911 -80.8656 57° Northeast 344 396 12,400  Level Miami Center
Tue 04:31:00 PM 25.9176 -79.5982 30° Northeast  Level Estimated
Tue 04:31:52 PM 23.2542 -80.7706 54° Northeast 361 415 14,300  Level Miami Center
Tue 04:32:00 PM 26.0430 -79.5160 30° Northeast  Level Estimated
Tue 04:32:52 PM 23.3131 -80.6750 56° Northeast 368 423 16,000  Level Miami Center
Tue 04:33:00 PM 26.1683 -79.4336 31° Northeast  Level Estimated
Tue 04:33:52 PM 23.3761 -80.5728 56° Northeast 383 441 17,700  Level Miami Center
Tue 04:34:00 PM 26.2936 -79.3511 31° Northeast  Level Estimated
Tue 04:39:52 PM 23.7970 -79.9040 56° Northeast 467 537 26,100  Level FlightAware ADS-B
Tue 04:40:47 PM 23.8590 -79.8040 56° Northeast 475 547 26,400 600 Climbing FlightAware ADS-B
Tue 04:41:32 PM 23.9150 -79.7130 56° Northeast 488 562 27,100 1,129 Climbing FlightAware ADS-B
Tue 04:42:12 PM 23.9740 -79.6190 56° Northeast 497 572 28,000 771 Climbing FlightAware ADS-B
Tue 04:42:42 PM 24.0110 -79.5600 56° Northeast 491 565 28,000  Level FlightAware ADS-B
Tue 04:43:27 PM 24.0840 -79.4790 45° Northeast 483 556 28,000  Level FlightAware ADS-B
Tue 04:44:07 PM 24.1570 -79.4140 39° Northeast 483 556 28,000  Level FlightAware ADS-B
Tue 04:44:47 PM 24.2240 -79.3540 39° Northeast 483 556 28,000  Level FlightAware ADS-B
Tue 04:45:32 PM 24.3020 -79.2840 39° Northeast 482 555 28,000 353 Level FlightAware ADS-B
Tue 04:46:12 PM 24.3710 -79.2220 39° Northeast 483 556 28,500 847 Climbing FlightAware ADS-B
Tue 04:46:57 PM 24.4510 -79.1500 39° Northeast 483 556 29,200 884 Climbing FlightAware ADS-B
Tue 04:47:47 PM 24.5350 -79.0740 39° Northeast 488 562 29,900 600 Climbing FlightAware ADS-B
Tue 04:48:47 PM 24.6300 -78.9880 39° Northeast 488 562 30,300 1,200 Climbing FlightAware ADS-B
Tue 04:49:27 PM 24.7150 -78.9110 39° Northeast 482 555 31,900 1,624 Climbing FlightAware ADS-B
Tue 04:50:12 PM 24.7940 -78.8400 39° Northeast 483 556 32,600 988 Climbing FlightAware ADS-B
Tue 04:50:52 PM 24.8620 -78.7780 40° Northeast 482 555 33,300 918 Climbing FlightAware ADS-B
Tue 04:51:37 PM 24.9400 -78.7070 40° Northeast 483 556 33,900 750 Climbing FlightAware ADS-B
Tue 04:52:12 PM 24.9970 -78.6560 39° Northeast 483 556 34,300 560 Climbing FlightAware ADS-B
Tue 04:52:52 PM 25.0660 -78.5920 40° Northeast 483 556 34,600 467 Climbing FlightAware ADS-B
Tue 04:53:42 PM 25.1560 -78.5100 40° Northeast 485 558 35,000 282 Climbing FlightAware ADS-B
Tue 04:54:17 PM 25.2170 -78.4540 40° Northeast 487 560 35,000  Level FlightAware ADS-B
Tue 04:55:02 PM 25.3010 -78.3770 40° Northeast 488 562 35,000  Level FlightAware ADS-B
Tue 04:55:47 PM 25.3760 -78.3090 39° Northeast 488 562 35,000  Level FlightAware ADS-B
Tue 04:56:27 PM 25.4490 -78.2410 40° Northeast 488 562 35,000  Level FlightAware ADS-B
Tue 04:57:12 PM 25.5270 -78.1690 40° Northeast 488 562 35,000  Level FlightAware ADS-B
Tue 04:57:52 PM 25.5920 -78.1090 40° Northeast 489 563 35,000  Level FlightAware ADS-B
Tue 04:58:47 PM 25.6880 -78.0210 40° Northeast 490 564 35,000  Level FlightAware ADS-B
Tue 04:59:32 PM 25.7690 -77.9460 40° Northeast 490 564 35,000  Level FlightAware ADS-B
Tue 05:00:07 PM 25.8240 -77.8950 40° Northeast 490 564 35,000  Level FlightAware ADS-B
Tue 05:00:52 PM 25.9130 -77.8120 40° Northeast 35,000  Level FlightAware ADS-B
Tue 05:03:02 PM 26.1400 -77.6000 40° Northeast 484 557 35,000  Level FlightAware ADS-B
Tue 05:03:37 PM 26.1930 -77.5500 40° Northeast 484 557 35,000  Level FlightAware ADS-B
Tue 05:04:27 PM 26.2660 -77.4820 40° Northeast 484 557 35,000  Level FlightAware ADS-B
Tue 05:05:07 PM 26.3250 -77.4270 40° Northeast 484 557 35,000  Level FlightAware ADS-B
Tue 05:05:47 PM 26.3830 -77.3720 40° Northeast 484 557 35,000  Level FlightAware ADS-B
Tue 05:06:27 PM 26.4410 -77.3180 40° Northeast 484 557 35,000  Level FlightAware ADS-B
Tue 05:07:07 PM 26.5000 -77.2630 40° Northeast 484 557 35,000  Level FlightAware ADS-B
Tue 05:07:57 PM 26.5730 -77.1950 40° Northeast 484 557 35,000  Level FlightAware ADS-B
Tue 05:08:37 PM 26.6310 -77.1400 40° Northeast 484 557 35,000  Level FlightAware ADS-B
Tue 05:09:17 PM 26.6890 -77.0850 40° Northeast 484 557 35,000  Level FlightAware ADS-B
Tue 05:09:57 PM 26.7470 -77.0300 40° Northeast 484 557 35,000  Level FlightAware ADS-B
Tue 05:10:37 PM 26.8060 -76.9760 39° Northeast 484 557 35,000  Level FlightAware ADS-B
Tue 05:11:27 PM 26.8790 -76.9070 40° Northeast 484 557 35,000  Level FlightAware ADS-B
Tue 05:12:07 PM 26.9370 -76.8520 40° Northeast 484 557 35,000  Level FlightAware ADS-B
Tue 05:12:47 PM 26.9950 -76.7970 40° Northeast 484 557 35,000 -1,143 Level FlightAware ADS-B
Tue 05:13:52 PM 27.2539 -76.5503 40° Northeast 473 544 33,000 -960 Descending Miami Center
Tue 05:14:52 PM 27.3561 -76.4492 41° Northeast 478 550 33,000  Level Miami Center
Tue 05:15:52 PM 27.4558 -76.3436 43° Northeast 483 556 33,000  Level Miami Center
Tue 05:16:52 PM 27.5619 -76.2469 39° Northeast 483 556 33,000  Level Miami Center
Tue 05:17:52 PM 27.6619 -76.1433 43° Northeast 483 556 33,000  Level Miami Center
Tue 05:18:52 PM 27.7700 -76.0511 37° Northeast 483 556 33,000  Level Miami Center
Tue 05:19:34 PM 27.8333 -75.9833 32° Northeast 485 558 33,000  Level New York Oceanic (ODAPS)
Tue 05:19:52 PM 27.8800 -75.9633 32° Northeast 483 556 33,000  Level Miami Center
Tue 05:20:52 PM 27.9881 -75.8708 37° Northeast 478 550 33,000  Level Miami Center
Tue 05:21:52 PM 28.1022 -75.7872 33° Northeast 478 550 33,000  Level Miami Center
Tue 05:23:00 PM 28.2352 -75.6908 33° Northeast  Level FlightAware Approximate
Tue 05:28:30 PM 28.8667 -75.2333 33° Northeast 493 567 33,000  Level New York Oceanic (ODAPS)
Tue 05:30:00 PM 29.0547 -75.0898 33° Northeast  Level FlightAware Approximate
Tue 05:31:00 PM 29.1716 -75.0032 33° Northeast  Level FlightAware Approximate
Tue 05:32:00 PM 29.2884 -74.9163 33° Northeast  Level FlightAware Approximate
Tue 05:33:00 PM 29.4052 -74.8293 33° Northeast  Level FlightAware Approximate
Tue 05:34:00 PM 29.5548 -74.7253 33° Northeast 493 567 33,000  Level FlightAware Transoceanic
Tue 05:35:00 PM 29.6693 -74.6399 33° Northeast 493 567 33,000  Level FlightAware Transoceanic
Tue 05:36:00 PM 29.7838 -74.5544 33° Northeast 493 567 33,000  Level FlightAware Transoceanic
Tue 05:37:00 PM 29.8982 -74.4686 33° Northeast 493 567 33,000  Level FlightAware Transoceanic
Tue 05:38:00 PM 30.0125 -74.3827 33° Northeast 493 567 33,000  Level FlightAware Transoceanic
Tue 05:39:00 PM 30.1268 -74.2965 33° Northeast 493 567 33,000  Level FlightAware Transoceanic
Tue 05:40:00 PM 30.2410 -74.2102 33° Northeast 493 567 33,000  Level FlightAware Transoceanic
Tue 05:41:00 PM 30.3552 -74.1237 33° Northeast 493 567 33,000  Level FlightAware Transoceanic
Tue 05:42:00 PM 30.4693 -74.0369 33° Northeast 493 567 33,000  Level FlightAware Transoceanic
Tue 05:42:32 PM 30.5000 -74.0167 35° Northeast 516 594 33,000  Level New York Oceanic (ODAPS)
Tue 05:43:00 PM 30.5833 -73.9500 33° Northeast 493 567 33,000  Level FlightAware Transoceanic
Tue 05:43:36 PM 30.5833 -73.9500 33° Northeast 518 596 33,000  Level New York Oceanic (ODAPS)
Tue 05:44:00 PM 30.7065 -73.8574 33° Northeast 493 567 33,000  Level FlightAware Transoceanic
Tue 05:45:00 PM 30.8296 -73.7645 33° Northeast 493 567 33,000  Level FlightAware Transoceanic
Tue 05:46:00 PM 30.9526 -73.6713 33° Northeast 493 567 33,000  Level FlightAware Transoceanic
Tue 05:47:00 PM 31.0756 -73.5779 33° Northeast 493 567 33,000  Level FlightAware Transoceanic
Tue 05:48:00 PM 31.1985 -73.4843 33° Northeast 516 594 33,000  Level FlightAware Transoceanic
Tue 05:49:00 PM 31.3213 -73.3905 33° Northeast 518 596 33,000  Level FlightAware Transoceanic
Tue 05:50:00 PM 31.4440 -73.2964 33° Northeast 518 596 33,000  Level FlightAware Transoceanic
Tue 05:51:00 PM 31.5667 -73.2020 33° Northeast 518 596 33,000  Level FlightAware Transoceanic
Tue 05:52:00 PM 31.6893 -73.1075 33° Northeast 518 596 33,000  Level FlightAware Transoceanic
Tue 05:53:00 PM 31.8119 -73.0126 33° Northeast 518 596 33,000  Level FlightAware Transoceanic
Tue 05:54:00 PM 31.9343 -72.9175 33° Northeast 518 596 33,000  Level FlightAware Transoceanic
Tue 05:55:00 PM 32.0567 -72.8222 33° Northeast 518 596 33,000  Level FlightAware Transoceanic
Tue 05:56:00 PM 32.1791 -72.7265 34° Northeast 518 596 33,000  Level FlightAware Transoceanic
Tue 05:56:33 PM 32.2333 -72.6833 34° Northeast 555 639 33,000  Level New York Oceanic (ODAPS)
Tue 05:57:00 PM 32.3013 -72.6307 34° Northeast 518 596 33,000  Level FlightAware Transoceanic
Tue 05:58:00 PM 32.4235 -72.5346 34° Northeast 518 596 33,000  Level FlightAware Transoceanic
Tue 05:59:00 PM 32.5456 -72.4382 34° Northeast 518 596 33,000  Level FlightAware Transoceanic
Tue 06:00:00 PM 32.6677 -72.3415 34° Northeast 518 596 33,000  Level FlightAware Transoceanic
Tue 06:01:00 PM 32.7896 -72.2446 34° Northeast 518 596 33,000  Level FlightAware Transoceanic
Tue 06:02:00 PM 33.0333 -72.0500 36° Northeast 555 639 33,000  Level FlightAware Transoceanic
Tue 06:03:00 PM 33.1549 -71.9430 36° Northeast 555 639 33,000  Level FlightAware Transoceanic
Tue 06:04:00 PM 33.2763 -71.8357 37° Northeast 555 639 33,000  Level FlightAware Transoceanic
Tue 06:04:00 PM 33.0333 -72.0500 36° Northeast 546 628 33,000  Level New York Oceanic (ODAPS)
Tue 06:05:00 PM 33.3976 -71.7281 37° Northeast 555 639 33,000  Level FlightAware Transoceanic
Tue 06:06:00 PM 33.5188 -71.6203 37° Northeast 555 639 33,000  Level FlightAware Transoceanic
Tue 06:07:00 PM 33.6400 -71.5121 37° Northeast 555 639 33,000  Level FlightAware Transoceanic
Tue 06:08:00 PM 33.7610 -71.4036 37° Northeast 555 639 33,000  Level FlightAware Transoceanic
Tue 06:09:00 PM 33.8820 -71.2948 37° Northeast 555 639 33,000  Level FlightAware Transoceanic
Tue 06:10:00 PM 34.0028 -71.1857 37° Northeast 546 628 33,000  Level FlightAware Transoceanic
Tue 06:10:30 PM 33.9833 -71.2000 37° Northeast 551 634 33,000  Level New York Oceanic (ODAPS)
Tue 06:11:00 PM 34.1236 -71.0762 37° Northeast 546 628 33,000  Level FlightAware Transoceanic
Tue 06:12:00 PM 34.2443 -70.9665 37° Northeast 546 628 33,000  Level FlightAware Transoceanic
Tue 06:13:00 PM 34.3648 -70.8565 37° Northeast 546 628 33,000  Level FlightAware Transoceanic
Tue 06:14:00 PM 34.4853 -70.7461 37° Northeast 546 628 33,000  Level FlightAware Transoceanic
Tue 06:15:00 PM 34.6057 -70.6354 37° Northeast 546 628 33,000  Level FlightAware Transoceanic
Tue 06:16:00 PM 34.7095 -70.5368 37° Northeast 551 634 33,000  Level FlightAware Transoceanic
Tue 06:17:00 PM 34.8302 -70.4251 37° Northeast 551 634 33,000  Level FlightAware Transoceanic
Tue 06:18:00 PM 34.9507 -70.3131 37° Northeast 551 634 33,000  Level FlightAware Transoceanic
Tue 06:19:00 PM 35.0712 -70.2008 37° Northeast 551 634 33,000  Level FlightAware Transoceanic
Tue 06:20:00 PM 35.1916 -70.0882 37° Northeast 551 634 33,000  Level FlightAware Transoceanic
Tue 06:21:00 PM 35.3118 -69.9752 38° Northeast 551 634 33,000  Level FlightAware Transoceanic
Tue 06:22:00 PM 35.4320 -69.8618 38° Northeast 551 634 33,000  Level FlightAware Transoceanic
Tue 06:23:00 PM 35.5520 -69.7482 38° Northeast 551 634 33,000  Level FlightAware Transoceanic
Tue 06:24:00 PM 35.6720 -69.6342 38° Northeast 551 634 33,000  Level FlightAware Transoceanic
Tue 06:24:04 PM 35.6667 -69.6333 38° Northeast 547 629 33,000  Level New York Oceanic (ODAPS)
Tue 06:25:00 PM 35.7918 -69.5199 38° Northeast 551 634 33,000  Level FlightAware Transoceanic
Tue 06:26:00 PM 35.9115 -69.4052 38° Northeast 551 634 33,000  Level FlightAware Transoceanic
Tue 06:27:00 PM 36.0312 -69.2901 38° Northeast 551 634 33,000  Level FlightAware Transoceanic
Tue 06:28:00 PM 36.1507 -69.1747 38° Northeast 551 634 33,000  Level FlightAware Transoceanic
Tue 06:29:00 PM 36.2701 -69.0590 38° Northeast 551 634 33,000  Level FlightAware Transoceanic
Tue 06:30:00 PM 36.3853 -68.9423 38° Northeast 547 629 33,000  Level FlightAware Transoceanic
Tue 06:31:00 PM 36.5047 -68.8259 38° Northeast 547 629 33,000  Level FlightAware Transoceanic
Tue 06:32:00 PM 36.6240 -68.7091 38° Northeast 547 629 33,000  Level FlightAware Transoceanic
Tue 06:33:00 PM 36.7431 -68.5920 38° Northeast 547 629 33,000  Level FlightAware Transoceanic
Tue 06:34:00 PM 36.8621 -68.4745 38° Northeast 547 629 33,000  Level FlightAware Transoceanic
Tue 06:35:00 PM 36.9811 -68.3566 38° Northeast 547 629 33,000  Level FlightAware Transoceanic
Tue 06:36:00 PM 37.0999 -68.2384 38° Northeast 547 629 33,000  Level FlightAware Transoceanic
Tue 06:37:00 PM 37.2186 -68.1198 39° Northeast 547 629 33,000  Level FlightAware Transoceanic
Tue 06:38:00 PM 37.3371 -68.0008 39° Northeast 547 629 33,000  Level FlightAware Transoceanic
Tue 06:38:00 PM 37.3333 -68.0167 39° Northeast 543 625 33,000  Level New York Oceanic (ODAPS)
Tue 06:39:00 PM 37.4556 -67.8814 39° Northeast 547 629 33,000  Level FlightAware Transoceanic
Tue 06:40:00 PM 37.5739 -67.7617 39° Northeast 547 629 33,000  Level FlightAware Transoceanic
Tue 06:41:00 PM 37.6921 -67.6416 39° Northeast 547 629 33,000  Level FlightAware Transoceanic
Tue 06:42:00 PM 37.8102 -67.5211 39° Northeast 547 629 33,000  Level FlightAware Transoceanic
Tue 06:43:00 PM 37.9282 -67.4002 39° Northeast 547 629 33,000  Level FlightAware Transoceanic
Tue 06:44:00 PM 38.0443 -67.2862 39° Northeast 543 625 33,000  Level FlightAware Transoceanic
Tue 06:45:00 PM 38.1624 -67.1631 39° Northeast 543 625 33,000  Level FlightAware Transoceanic
Tue 06:46:00 PM 38.2803 -67.0396 39° Northeast 543 625 33,000  Level FlightAware Transoceanic
Tue 06:47:00 PM 38.3981 -66.9157 40° Northeast 543 625 33,000  Level FlightAware Transoceanic
Tue 06:48:00 PM 38.5158 -66.7914 40° Northeast 543 625 33,000  Level FlightAware Transoceanic
Tue 06:49:00 PM 38.6333 -66.6667 46° Northeast 543 625 33,000  Level FlightAware Transoceanic
Tue 06:49:34 PM 38.6333 -66.6667 46° Northeast 535 616 33,000  Level New York Oceanic (ODAPS)
Tue 06:50:00 PM 38.7379 -66.5267 46° Northeast 543 625 33,000  Level FlightAware Transoceanic
Tue 06:51:00 PM 38.8424 -66.3864 46° Northeast 543 625 33,000  Level FlightAware Transoceanic
Tue 06:51:43 PM 38.9000 -66.3167 46° Northeast 535 616 33,000  Level New York Oceanic (ODAPS)
Tue 06:52:00 PM 38.9467 -66.2457 46° Northeast 543 625 33,000  Level FlightAware Transoceanic
Tue 06:53:00 PM 39.0508 -66.1045 47° Northeast 543 625 33,000  Level FlightAware Transoceanic
Tue 06:54:00 PM 39.1547 -65.9629 47° Northeast 543 625 33,000  Level FlightAware Transoceanic
Tue 06:55:00 PM 39.2421 -65.8434 47° Northeast 535 616 33,000  Level FlightAware Transoceanic
Tue 06:56:00 PM 39.3430 -65.7048 47° Northeast 535 616 33,000  Level FlightAware Transoceanic
Tue 06:57:00 PM 39.4437 -65.5658 47° Northeast 535 616 33,000  Level FlightAware Transoceanic
Tue 06:58:00 PM 39.5128 -65.4768 47° Northeast 535 616 33,000  Level FlightAware Transoceanic
Tue 06:59:00 PM 39.6143 -65.3354 47° Northeast 535 616 33,000  Level FlightAware Transoceanic
Tue 07:00:00 PM 39.7157 -65.1936 47° Northeast 535 616 33,000  Level FlightAware Transoceanic
Tue 07:01:00 PM 39.8169 -65.0513 47° Northeast 535 616 33,000  Level FlightAware Transoceanic
Tue 07:02:00 PM 39.9179 -64.9087 47° Northeast 535 616 33,000  Level FlightAware Transoceanic
Tue 07:03:00 PM 40.0187 -64.7656 47° Northeast 535 616 33,000  Level FlightAware Transoceanic
Tue 07:04:00 PM 40.1194 -64.6221 48° Northeast 535 616 33,000  Level FlightAware Transoceanic
Tue 07:05:00 PM 40.2199 -64.4782 48° Northeast 535 616 33,000  Level FlightAware Transoceanic
Tue 07:05:43 PM 40.3000 -64.3667 48° Northeast 533 613 33,000  Level New York Oceanic (ODAPS)
Tue 07:06:00 PM 40.3202 -64.3338 48° Northeast 535 616 33,000  Level FlightAware Transoceanic
Tue 07:07:00 PM 40.4203 -64.1890 48° Northeast 535 616 33,000  Level FlightAware Transoceanic
Tue 07:08:00 PM 40.5203 -64.0438 48° Northeast 535 616 33,000  Level FlightAware Transoceanic
Tue 07:09:00 PM 40.6201 -63.8981 48° Northeast 535 616 33,000  Level FlightAware Transoceanic
Tue 07:10:00 PM 40.7197 -63.7520 48° Northeast 535 616 33,000  Level FlightAware Transoceanic
Tue 07:11:00 PM 40.8191 -63.6055 48° Northeast 535 616 33,000  Level FlightAware Transoceanic
Tue 07:12:00 PM 40.9722 -63.3810 48° Northeast 533 613 33,000  Level FlightAware Transoceanic
Tue 07:13:00 PM 41.0676 -63.2385 48° Northeast 533 613 33,000  Level FlightAware Transoceanic
Tue 07:14:00 PM 41.1627 -63.0956 49° Northeast 533 613 33,000  Level FlightAware Transoceanic
Tue 07:15:00 PM 41.2577 -62.9524 49° Northeast 533 613 33,000  Level FlightAware Transoceanic
Tue 07:16:00 PM 41.3525 -62.8087 49° Northeast 533 613 33,000  Level FlightAware Transoceanic
Tue 07:17:00 PM 41.4471 -62.6646 49° Northeast 533 613 33,000  Level FlightAware Transoceanic
Tue 07:18:00 PM 41.5416 -62.5200 49° Northeast 533 613 33,000  Level FlightAware Transoceanic
Tue 07:19:00 PM 41.6359 -62.3751 49° Northeast 533 613 33,000  Level FlightAware Transoceanic
Tue 07:19:25 PM 41.6500 -62.3500 49° Northeast 531 611 33,000  Level New York Oceanic (ODAPS)
Tue 07:20:00 PM 41.7299 -62.2297 49° Northeast 533 613 33,000  Level FlightAware Transoceanic
Tue 07:21:00 PM 41.8238 -62.0839 49° Northeast 533 613 33,000  Level FlightAware Transoceanic
Tue 07:22:00 PM 41.9176 -61.9376 49° Northeast 533 613 33,000  Level FlightAware Transoceanic
Tue 07:23:00 PM 42.0111 -61.7910 49° Northeast 533 613 33,000  Level FlightAware Transoceanic
Tue 07:24:00 PM 42.1044 -61.6439 50° Northeast 533 613 33,000  Level FlightAware Transoceanic
Tue 07:25:00 PM 42.2011 -61.4900 50° Northeast 531 611 33,000  Level FlightAware Transoceanic
Tue 07:26:00 PM 42.2923 -61.3452 50° Northeast 531 611 33,000  Level FlightAware Transoceanic
Tue 07:26:21 PM 42.3000 -61.2833 40° Northeast 530 610 33,000  Level Moncton Center
Tue 07:27:00 PM 42.3833 -61.2000 39° Northeast 531 611 33,000 514 Level FlightAware Transoceanic
Tue 07:27:31 PM 42.4333 -61.1000 45° Northeast 520 598 33,600  Climbing Gander Center
Tue 07:28:00 PM 42.4927 -61.0779 40° Northeast 531 611 33,000 900 Descending FlightAware Transoceanic
Tue 07:28:31 PM 42.5333 -60.9833 41° Northeast 530 610 34,500  Climbing Gander Center
Tue 07:29:00 PM 42.6020 -60.9554 40° Northeast 531 611 33,000 500 Descending FlightAware Transoceanic
Tue 07:29:31 PM 42.6500 -60.8833 32° Northeast 530 610 35,000  Climbing Gander Center
Tue 07:30:00 PM 42.7111 -60.8325 40° Northeast 531 611 33,000  Descending FlightAware Transoceanic
Tue 07:30:31 PM 42.7667 -60.7333 43° Northeast 530 610 35,000  Climbing Gander Center
Tue 07:31:00 PM 42.8201 -60.7091 40° Northeast 531 611 33,000  Descending FlightAware Transoceanic
Tue 07:31:21 PM 42.8500 -60.6333 41° Northeast 530 610 35,000 1,481 Climbing Moncton Center
Tue 07:32:21 PM 42.9667 -60.5000 40° Northeast 530 610 35,000  Level Moncton Center
Tue 07:33:21 PM 43.0833 -60.3667 40° Northeast 530 610 35,000  Level Moncton Center
Tue 07:34:21 PM 43.1833 -60.2500 40° Northeast 530 610 35,000 269 Level Moncton Center
Tue 07:40:02 PM 43.8460 -59.5210 40° Northeast 529 609 36,800 283 Climbing FlightAware ADS-B
Tue 07:40:42 PM 43.9090 -59.4460 41° Northeast 529 609 36,800 141 Level FlightAware ADS-B
Tue 07:41:27 PM 44.0040 -59.3310 41° Northeast 526 605 37,000 141 Climbing FlightAware ADS-B
Tue 07:42:07 PM 44.0770 -59.2430 41° Northeast 525 604 37,000  Level FlightAware ADS-B
Tue 07:42:52 PM 44.1640 -59.1390 41° Northeast 524 603 37,000  Level FlightAware ADS-B
Tue 07:43:32 PM 44.2370 -59.0510 41° Northeast 523 602 37,000  Level FlightAware ADS-B
Tue 07:44:17 PM 44.3190 -58.9520 41° Northeast 522 601 37,000  Level FlightAware ADS-B
Tue 07:44:57 PM 44.3910 -58.8640 41° Northeast 522 601 37,000  Level FlightAware ADS-B
Tue 07:45:37 PM 44.4640 -58.7760 41° Northeast 520 598 37,000  Level FlightAware ADS-B
Tue 07:46:22 PM 44.5440 -58.6770 41° Northeast 516 594 37,000  Level FlightAware ADS-B
Tue 07:47:02 PM 44.6150 -58.5900 41° Northeast 514 592 37,000  Level FlightAware ADS-B
Tue 07:47:47 PM 44.6990 -58.4870 41° Northeast 512 589 37,000  Level FlightAware ADS-B
Tue 07:48:27 PM 44.7690 -58.4000 41° Northeast 512 589 37,000  Level FlightAware ADS-B
Tue 07:49:07 PM 44.8400 -58.3120 41° Northeast 512 589 37,000  Level FlightAware ADS-B
Tue 07:49:52 PM 44.9180 -58.2150 41° Northeast 513 590 37,000  Level FlightAware ADS-B
Tue 07:50:32 PM 44.9870 -58.1280 42° Northeast 512 589 37,000  Level FlightAware ADS-B
Tue 07:51:12 PM 45.0610 -58.0360 41° Northeast 512 589 37,000  Level FlightAware ADS-B
Tue 07:51:57 PM 45.1400 -57.9360 42° Northeast 512 589 37,000  Level FlightAware ADS-B
Tue 07:52:37 PM 45.2110 -57.8460 42° Northeast 511 588 37,000  Level FlightAware ADS-B
Tue 07:53:17 PM 45.2820 -57.7560 42° Northeast 509 586 37,000  Level FlightAware ADS-B
Tue 07:54:02 PM 45.3580 -57.6600 42° Northeast 508 585 37,000  Level FlightAware ADS-B
Tue 07:54:42 PM 45.4270 -57.5710 42° Northeast 508 585 37,000  Level FlightAware ADS-B
Tue 07:55:27 PM 45.5080 -57.4670 42° Northeast 506 582 37,000  Level FlightAware ADS-B
Tue 07:56:07 PM 45.5740 -57.3820 42° Northeast 506 582 37,000  Level FlightAware ADS-B
Tue 07:56:47 PM 45.6460 -57.2890 42° Northeast 506 582 37,000  Level FlightAware ADS-B
Tue 07:57:32 PM 45.7170 -57.1980 42° Northeast 506 582 37,000  Level FlightAware ADS-B
Tue 07:58:12 PM 45.7760 -57.1210 42° Northeast 506 582 37,000  Level FlightAware ADS-B
Tue 07:58:57 PM 45.8730 -56.9950 42° Northeast 508 585 37,000  Level FlightAware ADS-B
Tue 07:59:37 PM 45.9360 -56.9130 42° Northeast 508 585 37,000  Level FlightAware ADS-B
Tue 08:00:12 PM 45.9990 -56.8280 43° Northeast 510 587 37,000  Level FlightAware ADS-B
Tue 08:01:17 PM 46.1060 -56.6890 42° Northeast 510 587 37,000  Level FlightAware ADS-B
Tue 08:01:57 PM 46.1840 -56.5840 43° Northeast 508 585 37,000  Level FlightAware ADS-B
Tue 08:02:37 PM 46.2450 -56.5040 42° Northeast 508 585 37,000  Level FlightAware ADS-B
Tue 08:03:22 PM 46.3290 -56.3900 43° Northeast 508 585 37,000  Level FlightAware ADS-B
Tue 08:04:02 PM 46.3980 -56.2970 43° Northeast 508 585 37,000  Level FlightAware ADS-B
Tue 08:04:47 PM 46.4780 -56.1930 42° Northeast 505 581 37,000  Level FlightAware ADS-B
Tue 08:05:27 PM 46.5460 -56.1070 41° Northeast 502 578 37,000  Level FlightAware ADS-B
Tue 08:06:12 PM 46.6260 -56.0090 40° Northeast 501 577 37,000  Level FlightAware ADS-B
Tue 08:06:52 PM 46.6970 -55.9230 40° Northeast 501 577 37,000  Level FlightAware ADS-B
Tue 08:07:32 PM 46.7690 -55.8370 39° Northeast 501 577 37,000  Level FlightAware ADS-B
Tue 08:08:17 PM 46.8490 -55.7380 40° Northeast 501 577 37,000  Level FlightAware ADS-B
Tue 08:08:57 PM 46.9210 -55.6500 40° Northeast 501 577 37,000  Level FlightAware ADS-B
Tue 08:09:37 PM 46.9870 -55.5680 40° Northeast 500 575 37,000  Level FlightAware ADS-B
Tue 08:10:37 PM 47.0820 -55.4490 40° Northeast 495 570 37,000 -253 Level FlightAware ADS-B
Tue 08:11:12 PM 47.1500 -55.3660 40° Northeast 495 570 36,600 -300 Descending FlightAware ADS-B
Tue 08:11:57 PM 47.2170 -55.2790 41° Northeast 495 570 36,600 -467 Level FlightAware ADS-B
Tue 08:12:42 PM 47.3160 -55.1570 40° Northeast 500 575 35,900 -776 Descending FlightAware ADS-B
Tue 08:13:22 PM 47.3860 -55.0680 41° Northeast 506 582 35,500 -635 Descending FlightAware ADS-B
Tue 08:14:07 PM 47.4630 -54.9710 40° Northeast 508 585 35,000 -706 Descending FlightAware ADS-B
Tue 08:14:47 PM 47.5340 -54.8800 41° Northeast 504 580 34,500 -675 Descending FlightAware ADS-B
Tue 08:15:27 PM 47.6040 -54.7900 41° Northeast 506 582 34,100 -635 Descending FlightAware ADS-B
Tue 08:16:12 PM 47.6880 -54.6840 40° Northeast 508 585 33,600 -667 Descending FlightAware ADS-B
Tue 08:16:57 PM 47.7640 -54.5840 41° Northeast 508 585 33,100 -424 Descending FlightAware ADS-B
Tue 08:17:37 PM 47.8350 -54.4930 41° Northeast 501 577 33,000 -75 Descending FlightAware ADS-B
Tue 08:18:17 PM 47.9040 -54.4040 41° Northeast 502 578 33,000  Level FlightAware ADS-B
Tue 08:18:57 PM 47.9750 -54.3110 41° Northeast 502 578 33,000  Level FlightAware ADS-B
Tue 08:19:42 PM 48.0540 -54.2070 41° Northeast 503 579 33,000  Level FlightAware ADS-B
Tue 08:20:27 PM 48.1320 -54.1050 41° Northeast 499 574 33,000  Level FlightAware ADS-B
Tue 08:21:07 PM 48.2020 -54.0130 41° Northeast 500 575 33,000  Level FlightAware ADS-B
Tue 08:21:42 PM 48.2660 -53.9280 41° Northeast 501 577 33,000  Level FlightAware ADS-B
Tue 08:22:32 PM 48.3510 -53.8150 41° Northeast 502 578 33,000  Level FlightAware ADS-B
Tue 08:23:27 PM 48.4470 -53.6860 42° Northeast 502 578 33,000  Level FlightAware ADS-B
Tue 08:24:07 PM 48.5180 -53.5910 42° Northeast 501 577 33,000  Level FlightAware ADS-B
Tue 08:24:52 PM 48.5970 -53.4850 42° Northeast 499 574 33,000  Level FlightAware ADS-B
Tue 08:25:27 PM 48.6570 -53.4040 42° Northeast 502 578 33,000  Level FlightAware ADS-B
Tue 08:26:37 PM 48.7710 -53.2490 42° Northeast 496 571 33,000  Level FlightAware ADS-B
Tue 08:27:27 PM 48.8610 -53.1270 42° Northeast 495 570 33,000  Level FlightAware ADS-B
Tue 08:28:07 PM 48.9310 -53.0300 42° Northeast 495 570 33,000  Level FlightAware ADS-B
Tue 08:28:52 PM 49.0070 -52.9240 42° Northeast 494 568 33,000  Level FlightAware ADS-B
Tue 08:29:32 PM 49.0750 -52.8300 42° Northeast 493 567 33,000  Level FlightAware ADS-B
Tue 08:30:12 PM 49.1430 -52.7370 42° Northeast 490 564 33,000  Level FlightAware ADS-B
Tue 08:30:57 PM 49.2140 -52.6370 43° Northeast 489 563 33,000  Level FlightAware ADS-B
Tue 08:31:27 PM 49.2660 -52.5650 42° Northeast 489 563 33,000  Level FlightAware ADS-B
Tue 08:32:32 PM 49.3750 -52.4100 43° Northeast 487 560 33,000  Level FlightAware ADS-B
Tue 08:33:17 PM 49.4480 -52.3070 43° Northeast 487 560 33,000  Level FlightAware ADS-B
Tue 08:33:52 PM 49.5010 -52.2340 42° Northeast 487 560 33,000  Level FlightAware ADS-B
Tue 08:35:22 PM 49.6480 -52.0220 43° Northeast 484 557 33,000  Level FlightAware ADS-B
Tue 08:36:17 PM 49.7410 -51.8900 43° Northeast 483 556 33,000  Level FlightAware ADS-B
Tue 08:37:02 PM 49.8190 -51.7760 43° Northeast 483 556 33,000  Level FlightAware ADS-B
Tue 08:37:42 PM 49.8840 -51.6810 43° Northeast 483 556 33,000  Level FlightAware ADS-B
Tue 08:38:17 PM 49.9380 -51.6030 43° Northeast 483 556 33,000  Level FlightAware ADS-B
Tue 08:39:17 PM 50.0300 -51.4680 43° Northeast 483 556 33,000  Level FlightAware ADS-B
Tue 08:39:57 PM 50.0860 -51.3870 43° Northeast 483 556 33,000  Level FlightAware ADS-B
Tue 08:40:47 PM 50.1550 -51.2860 43° Northeast 483 556 33,000  Level FlightAware ADS-B
Tue 08:41:27 PM 50.2110 -51.2050 43° Northeast 483 556 33,000  Level FlightAware ADS-B
Tue 08:42:07 PM 50.2670 -51.1240 43° Northeast 483 556 33,000  Level FlightAware ADS-B
Tue 08:42:47 PM 50.3220 -51.0430 43° Northeast 483 556 33,000  Level FlightAware ADS-B
Tue 08:43:27 PM 50.3780 -50.9620 43° Northeast 483 556 33,000  Level FlightAware ADS-B
Tue 08:44:07 PM 50.4330 -50.8810 43° Northeast 483 556 33,000  Level FlightAware ADS-B
Tue 08:44:57 PM 50.5030 -50.7790 43° Northeast 483 556 33,000  Level FlightAware ADS-B
Tue 08:45:37 PM 50.5580 -50.6970 43° Northeast 483 556 33,000  Level FlightAware ADS-B
Tue 08:46:17 PM 50.6140 -50.6160 43° Northeast 483 556 33,000  Level FlightAware ADS-B
Tue 08:46:57 PM 50.6690 -50.5340 43° Northeast 483 556 33,000  Level FlightAware ADS-B
Tue 08:47:47 PM 50.7390 -50.4320 43° Northeast 483 556 33,000  Level FlightAware ADS-B
Tue 08:48:27 PM 50.7940 -50.3500 43° Northeast 483 556 33,000  Level FlightAware ADS-B
Tue 08:48:45 PM 50.9167 -50.0333 43° Northeast 470 541 33,000  Level Gander Center
Tue 08:49:31 PM 50.9833 -49.9333 43° Northeast 470 541 33,000  Level Gander Center
Tue 08:50:31 PM 51.0667 -49.7833 48° Northeast 480 552 33,000  Level Gander Center
Tue 08:51:31 PM 51.1500 -49.6000 54° Northeast 480 552 33,000  Level Gander Center
Tue 08:54:00 PM 51.2587 -49.3849 51° Northeast  Level FlightAware Approximate
Tue 09:01:00 PM 51.8493 -48.1485 53° Northeast  Level FlightAware Approximate
Tue 09:02:00 PM 51.9314 -47.9677 54° Northeast  Level FlightAware Approximate
Tue 09:03:00 PM 52.0131 -47.7862 54° Northeast  Level FlightAware Approximate
Tue 09:04:00 PM 52.0944 -47.6038 54° Northeast  Level FlightAware Approximate
Tue 09:05:00 PM 52.1749 -47.4203 54° Northeast  Level FlightAware Approximate
Tue 09:06:00 PM 52.2552 -47.2360 55° Northeast  Level FlightAware Approximate
Tue 09:07:00 PM 52.3352 -47.0512 55° Northeast  Level FlightAware Approximate
Tue 09:08:00 PM 52.4149 -46.8656 55° Northeast  Level FlightAware Approximate
Tue 09:09:00 PM 52.4943 -46.6794 55° Northeast  Level FlightAware Approximate
Tue 09:10:00 PM 52.5734 -46.4925 55° Northeast  Level FlightAware Approximate
Tue 09:11:00 PM 52.6522 -46.3050 55° Northeast  Level FlightAware Approximate
Tue 09:12:00 PM 52.7307 -46.1167 55° Northeast  Level FlightAware Approximate
Tue 09:13:00 PM 52.8089 -45.9278 56° Northeast  Level FlightAware Approximate
Tue 09:14:00 PM 52.8868 -45.7382 56° Northeast  Level FlightAware Approximate
Tue 09:15:00 PM 52.9644 -45.5479 56° Northeast  Level FlightAware Approximate
Tue 09:16:00 PM 53.0415 -45.3567 56° Northeast  Level FlightAware Approximate
Tue 09:17:00 PM 53.1184 -45.1649 56° Northeast  Level FlightAware Approximate
Tue 09:18:00 PM 53.1949 -44.9724 56° Northeast  Level FlightAware Approximate
Tue 09:19:00 PM 53.2711 -44.7792 57° Northeast  Level FlightAware Approximate
Tue 09:20:00 PM 53.3470 -44.5853 57° Northeast  Level FlightAware Approximate
Tue 09:21:00 PM 53.4226 -44.3908 57° Northeast  Level FlightAware Approximate
Tue 09:22:00 PM 53.4980 -44.1957 57° Northeast  Level FlightAware Approximate
Tue 09:23:00 PM 53.5737 -44.0005 57° Northeast  Level FlightAware Approximate
Tue 09:24:00 PM 53.6490 -43.8046 57° Northeast  Level FlightAware Approximate
Tue 09:25:00 PM 53.7240 -43.6080 57° Northeast  Level FlightAware Approximate
Tue 09:26:00 PM 53.7987 -43.4107 57° Northeast  Level FlightAware Approximate
Tue 09:27:00 PM 53.8730 -43.2127 57° Northeast  Level FlightAware Approximate
Tue 09:28:00 PM 53.9471 -43.0140 58° Northeast  Level FlightAware Approximate
Tue 09:29:00 PM 54.0208 -42.8146 58° Northeast  Level FlightAware Approximate
Tue 09:30:00 PM 54.0942 -42.6145 58° Northeast  Level FlightAware Approximate
Tue 09:31:00 PM 54.1672 -42.4136 58° Northeast  Level FlightAware Approximate
Tue 09:32:00 PM 54.2399 -42.2121 58° Northeast  Level FlightAware Approximate
Tue 09:33:00 PM 54.3123 -42.0099 58° Northeast  Level FlightAware Approximate
Tue 09:34:00 PM 54.3843 -41.8069 59° Northeast  Level FlightAware Approximate
Tue 09:35:00 PM 54.4560 -41.6033 59° Northeast  Level FlightAware Approximate
Tue 09:36:00 PM 54.5274 -41.3989 59° Northeast  Level FlightAware Approximate
Tue 09:37:00 PM 54.5984 -41.1938 59° Northeast  Level FlightAware Approximate
Tue 09:38:00 PM 54.6690 -40.9880 59° Northeast  Level FlightAware Approximate
Tue 09:39:00 PM 54.7393 -40.7815 59° Northeast  Level FlightAware Approximate
Tue 09:40:00 PM 54.8093 -40.5742 60° Northeast  Level FlightAware Approximate
Tue 09:41:00 PM 54.8789 -40.3663 60° Northeast  Level FlightAware Approximate
Tue 09:42:00 PM 54.9481 -40.1576 60° Northeast  Level FlightAware Approximate
Tue 09:43:00 PM 55.0184 -39.9498 57° Northeast  Level FlightAware Approximate
Tue 09:44:00 PM 55.0929 -39.7459 57° Northeast  Level FlightAware Approximate
Tue 09:45:00 PM 55.1670 -39.5412 58° Northeast  Level FlightAware Approximate
Tue 09:46:00 PM 55.2407 -39.3358 58° Northeast  Level FlightAware Approximate
Tue 09:47:00 PM 55.3141 -39.1296 58° Northeast  Level FlightAware Approximate
Tue 09:48:00 PM 55.3872 -38.9226 58° Northeast  Level FlightAware Approximate
Tue 09:49:00 PM 55.4599 -38.7149 58° Northeast  Level FlightAware Approximate
Tue 09:50:00 PM 55.5322 -38.5065 58° Northeast  Level FlightAware Approximate
Tue 09:51:00 PM 55.6043 -38.2972 59° Northeast  Level FlightAware Approximate
Tue 09:52:00 PM 55.6759 -38.0872 59° Northeast  Level FlightAware Approximate
Tue 09:53:00 PM 55.7472 -37.8764 59° Northeast  Level FlightAware Approximate
Tue 09:54:00 PM 55.8181 -37.6649 59° Northeast  Level FlightAware Approximate
Tue 09:55:00 PM 55.8886 -37.4526 59° Northeast  Level FlightAware Approximate
Tue 09:56:00 PM 55.9588 -37.2395 59° Northeast  Level FlightAware Approximate
Tue 09:57:00 PM 56.0286 -37.0256 60° Northeast  Level FlightAware Approximate
Tue 09:58:00 PM 56.0981 -36.8110 60° Northeast  Level FlightAware Approximate
Tue 09:59:00 PM 56.1672 -36.5956 60° Northeast  Level FlightAware Approximate
Tue 10:00:00 PM 56.2359 -36.3794 60° Northeast  Level FlightAware Approximate
Tue 10:01:00 PM 56.3042 -36.1624 60° Northeast  Level FlightAware Approximate
Tue 10:02:00 PM 56.3721 -35.9447 61° Northeast  Level FlightAware Approximate
Tue 10:03:00 PM 56.4397 -35.7262 61° Northeast  Level FlightAware Approximate
Tue 10:04:00 PM 56.5069 -35.5069 61° Northeast  Level FlightAware Approximate
Tue 10:05:00 PM 56.5736 -35.2868 61° Northeast  Level FlightAware Approximate
Tue 10:06:00 PM 56.6400 -35.0660 61° Northeast  Level FlightAware Approximate
Tue 10:07:00 PM 56.7060 -34.8444 61° Northeast  Level FlightAware Approximate
Tue 10:08:00 PM 56.7716 -34.6220 62° Northeast  Level FlightAware Approximate
Tue 10:09:00 PM 56.8368 -34.3988 62° Northeast  Level FlightAware Approximate
Tue 10:10:00 PM 56.9017 -34.1749 62° Northeast  Level FlightAware Approximate
Tue 10:11:00 PM 56.9661 -33.9502 62° Northeast  Level FlightAware Approximate
Tue 10:12:00 PM 57.0301 -33.7247 62° Northeast  Level FlightAware Approximate
Tue 10:13:00 PM 57.0937 -33.4984 63° Northeast  Level FlightAware Approximate
Tue 10:14:00 PM 57.1569 -33.2713 63° Northeast  Level FlightAware Approximate
Tue 10:15:00 PM 57.2196 -33.0435 63° Northeast  Level FlightAware Approximate
Tue 10:16:00 PM 57.2820 -32.8149 63° Northeast  Level FlightAware Approximate
Tue 10:17:00 PM 57.3439 -32.5855 63° Northeast  Level FlightAware Approximate
Tue 10:18:00 PM 57.4055 -32.3554 64° Northeast  Level FlightAware Approximate
Tue 10:19:00 PM 57.4666 -32.1245 64° Northeast  Level FlightAware Approximate
Tue 10:20:00 PM 57.5273 -31.8928 64° Northeast  Level FlightAware Approximate
Tue 10:21:00 PM 57.5875 -31.6604 64° Northeast  Level FlightAware Approximate
Tue 10:22:00 PM 57.6474 -31.4271 64° Northeast  Level FlightAware Approximate
Tue 10:23:00 PM 57.7068 -31.1931 65° Northeast  Level FlightAware Approximate
Tue 10:24:00 PM 57.7657 -30.9584 65° Northeast  Level FlightAware Approximate
Tue 10:25:00 PM 57.8242 -30.7229 65° Northeast  Level FlightAware Approximate
Tue 10:26:00 PM 57.8823 -30.4866 65° Northeast  Level FlightAware Approximate
Tue 10:27:00 PM 57.9400 -30.2495 65° Northeast  Level FlightAware Approximate
Tue 10:28:00 PM 57.9972 -30.0117 66° East  Level FlightAware Approximate
Tue 10:29:00 PM 58.0551 -29.7742 65° Northeast  Level FlightAware Approximate
Tue 10:30:00 PM 58.1127 -29.5359 65° Northeast  Level FlightAware Approximate
Tue 10:31:00 PM 58.1698 -29.2969 66° East  Level FlightAware Approximate
Tue 10:32:00 PM 58.2264 -29.0570 66° East  Level FlightAware Approximate
Tue 10:33:00 PM 58.2826 -28.8165 66° East  Level FlightAware Approximate
Tue 10:34:00 PM 58.3383 -28.5751 66° East  Level FlightAware Approximate
Tue 10:35:00 PM 58.3936 -28.3330 66° East  Level FlightAware Approximate
Tue 10:36:00 PM 58.4485 -28.0902 67° East  Level FlightAware Approximate
Tue 10:37:00 PM 58.5028 -27.8465 67° East  Level FlightAware Approximate
Tue 10:38:00 PM 58.5568 -27.6022 67° East  Level FlightAware Approximate
Tue 10:39:00 PM 58.6102 -27.3570 67° East  Level FlightAware Approximate
Tue 10:40:00 PM 58.6643 -27.1120 67° East  Level FlightAware Approximate
Tue 10:41:00 PM 58.7187 -26.8670 67° East  Level FlightAware Approximate
Tue 10:42:00 PM 58.7727 -26.6211 67° East  Level FlightAware Approximate
Tue 10:43:00 PM 58.8262 -26.3746 67° East  Level FlightAware Approximate
Tue 10:44:00 PM 58.8792 -26.1272 67° East  Level FlightAware Approximate
Tue 10:45:00 PM 58.9318 -25.8791 68° East  Level FlightAware Approximate
Tue 10:46:00 PM 58.9838 -25.6302 68° East  Level FlightAware Approximate
Tue 10:47:00 PM 59.0354 -25.3806 68° East  Level FlightAware Approximate
Tue 10:48:00 PM 59.0866 -25.1303 68° East  Level FlightAware Approximate
Tue 10:49:00 PM 59.1372 -24.8792 68° East  Level FlightAware Approximate
Tue 10:50:00 PM 59.1874 -24.6273 69° East  Level FlightAware Approximate
Tue 10:51:00 PM 59.2370 -24.3748 69° East  Level FlightAware Approximate
Tue 10:52:00 PM 59.2862 -24.1214 69° East  Level FlightAware Approximate
Tue 10:53:00 PM 59.3349 -23.8674 69° East  Level FlightAware Approximate
Tue 10:54:00 PM 59.3830 -23.6126 70° East  Level FlightAware Approximate
Tue 10:55:00 PM 59.4307 -23.3571 70° East  Level FlightAware Approximate
Tue 10:56:00 PM 59.4779 -23.1009 70° East  Level FlightAware Approximate
Tue 10:57:00 PM 59.5246 -22.8440 70° East  Level FlightAware Approximate
Tue 10:58:00 PM 59.5708 -22.5864 70° East  Level FlightAware Approximate
Tue 10:59:00 PM 59.6165 -22.3281 71° East  Level FlightAware Approximate
Tue 11:00:00 PM 59.6616 -22.0690 71° East  Level FlightAware Approximate
Tue 11:01:00 PM 59.7063 -21.8093 71° East  Level FlightAware Approximate
Tue 11:02:00 PM 59.7504 -21.5489 71° East  Level FlightAware Approximate
Tue 11:03:00 PM 59.7940 -21.2878 72° East  Level FlightAware Approximate
Tue 11:04:00 PM 59.8371 -21.0260 72° East  Level FlightAware Approximate
Tue 11:05:00 PM 59.8797 -20.7635 72° East  Level FlightAware Approximate
Tue 11:06:00 PM 59.9217 -20.5004 72° East  Level FlightAware Approximate
Tue 11:07:00 PM 59.9633 -20.2366 72° East  Level FlightAware Approximate
Tue 11:08:00 PM 60.0038 -19.9719 75° East  Level FlightAware Approximate
Tue 11:09:00 PM 60.0401 -19.7044 75° East  Level FlightAware Approximate
Tue 11:10:00 PM 60.0758 -19.4363 75° East  Level FlightAware Approximate
Tue 11:11:00 PM 60.1110 -19.1677 75° East  Level FlightAware Approximate
Tue 11:12:00 PM 60.1456 -18.8984 75° East  Level FlightAware Approximate
Tue 11:13:00 PM 60.1797 -18.6286 76° East  Level FlightAware Approximate
Tue 11:14:00 PM 60.2133 -18.3582 76° East  Level FlightAware Approximate
Tue 11:15:00 PM 60.2463 -18.0874 76° East  Level FlightAware Approximate
Tue 11:16:00 PM 60.2787 -17.8159 76° East  Level FlightAware Approximate
Tue 11:17:00 PM 60.3106 -17.5439 77° East  Level FlightAware Approximate
Tue 11:18:00 PM 60.3419 -17.2714 77° East  Level FlightAware Approximate
Tue 11:19:00 PM 60.3724 -16.9983 77° East  Level FlightAware Approximate
Tue 11:20:00 PM 60.4022 -16.7246 77° East  Level FlightAware Approximate
Tue 11:21:00 PM 60.4314 -16.4503 78° East  Level FlightAware Approximate
Tue 11:22:00 PM 60.4601 -16.1756 78° East  Level FlightAware Approximate
Tue 11:23:00 PM 60.4882 -15.9005 78° East  Level FlightAware Approximate
Tue 11:24:00 PM 60.5168 -15.6252 78° East  Level FlightAware Approximate
Tue 11:25:00 PM 60.5455 -15.3498 78° East  Level FlightAware Approximate
Tue 11:26:00 PM 60.5736 -15.0739 78° East  Level FlightAware Approximate
Tue 11:27:00 PM 60.6012 -14.7976 78° East  Level FlightAware Approximate
Tue 11:28:00 PM 60.6282 -14.5207 79° East  Level FlightAware Approximate
Tue 11:29:00 PM 60.6546 -14.2434 79° East  Level FlightAware Approximate
Tue 11:30:00 PM 60.6804 -13.9657 79° East  Level FlightAware Approximate
Tue 11:31:00 PM 60.7057 -13.6875 79° East  Level FlightAware Approximate
Tue 11:32:00 PM 60.7304 -13.4089 80° East  Level FlightAware Approximate
Tue 11:33:00 PM 60.7545 -13.1298 80° East  Level FlightAware Approximate
Tue 11:34:00 PM 60.7780 -12.8504 80° East  Level FlightAware Approximate
Tue 11:35:00 PM 60.8010 -12.5705 80° East  Level FlightAware Approximate
Tue 11:36:00 PM 60.8234 -12.2902 81° East  Level FlightAware Approximate
Tue 11:37:00 PM 60.8452 -12.0096 81° East  Level FlightAware Approximate
Tue 11:37:07 PM 61.0820 -8.4500 81° East 553 636 33,000  Level FlightAware ADS-B
Tue 11:37:47 PM 61.0910 -8.2490 85° East 554 638 33,000 600 Level FlightAware ADS-B
Tue 11:38:27 PM 61.1020 -8.0190 84° East 560 644 33,800 1,129 Climbing FlightAware ADS-B
Tue 11:39:12 PM 61.1110 -7.8020 85° East 562 647 34,600 1,129 Climbing FlightAware ADS-B
Tue 11:39:52 PM 61.1200 -7.5800 85° East 564 649 35,400 1,129 Climbing FlightAware ADS-B
Tue 11:40:37 PM 61.1300 -7.3350 85° East 567 652 36,200 988 Climbing FlightAware ADS-B
Tue 11:41:17 PM 61.1380 -7.1160 86° East 570 656 36,800 565 Climbing FlightAware ADS-B
Tue 11:42:02 PM 61.1470 -6.8740 85° East 570 656 37,000 141 Climbing FlightAware ADS-B
Tue 11:42:42 PM 61.1540 -6.6590 86° East 568 654 37,000  Level FlightAware ADS-B
Tue 11:43:27 PM 61.1620 -6.4120 86° East 571 657 37,000  Level FlightAware ADS-B
Tue 11:44:07 PM 61.1690 -6.1900 86° East 572 658 37,000  Level FlightAware ADS-B
Tue 11:44:47 PM 61.1760 -5.9700 86° East 573 659 37,000  Level FlightAware ADS-B
Tue 11:45:32 PM 61.1830 -5.7210 87° East 574 661 37,000  Level FlightAware ADS-B
Tue 11:46:27 PM 61.1900 -5.4190 87° East 575 662 37,000  Level FlightAware ADS-B
Tue 11:47:07 PM 61.1960 -5.2010 87° East 574 661 37,000  Level FlightAware ADS-B
Tue 11:47:52 PM 61.2010 -4.9540 87° East 574 661 37,000  Level FlightAware ADS-B
Tue 11:48:37 PM 61.2050 -4.7510 88° East 574 661 37,000  Level FlightAware ADS-B
Tue 11:49:42 PM 61.2120 -4.3750 88° East 575 662 37,000  Level FlightAware ADS-B
Tue 11:51:12 PM 61.2190 -3.8730 88° East 575 662 37,000  Level FlightAware ADS-B
Tue 11:51:52 PM 61.2220 -3.6580 88° East 575 662 37,000  Level FlightAware ADS-B
Tue 11:52:27 PM 61.2240 -3.4750 89° East 574 661 37,000  Level FlightAware ADS-B
Tue 11:53:17 PM 61.2270 -3.1830 89° East 575 662 37,000  Level FlightAware ADS-B
Tue 11:53:47 PM 61.2280 -3.0200 89° East 575 662 37,000  Level FlightAware ADS-B
Tue 11:54:37 PM 61.2290 -2.7420 89° East 576 663 37,000  Level FlightAware ADS-B
Tue 11:55:17 PM 61.2300 -2.5320 89° East 576 663 37,000  Level FlightAware ADS-B
Tue 11:56:02 PM 61.2320 -2.3060 89° East 576 663 37,000  Level FlightAware ADS-B
Tue 11:56:47 PM 61.2310 -2.0240 90° East 576 663 37,000  Level FlightAware ADS-B
Tue 11:57:42 PM 61.2300 -1.7380 90° East 577 664 37,000  Level FlightAware ADS-B
Tue 11:58:17 PM 61.2300 -1.5630 90° East 577 664 37,000  Level FlightAware ADS-B
Tue 11:58:57 PM 61.2300 -1.3740 90° East 577 664 37,000  Level FlightAware ADS-B
Tue 11:59:47 PM 61.2300 -1.1390 90° East 577 664 37,000  Level FlightAware ADS-B
Wed 12:00:27 AM 61.2300 -0.9500 90° East 577 664 37,000  Level FlightAware ADS-B
Wed 12:01:07 AM 61.2300 -0.7620 90° East 577 664 37,000  Level FlightAware ADS-B
Wed 12:01:47 AM 61.2300 -0.5730 90° East 577 664 37,000  Level FlightAware ADS-B
Wed 12:02:27 AM 61.2300 -0.3840 90° East 577 664 37,000  Level FlightAware ADS-B
Wed 12:03:17 AM 61.2300 -0.1490 90° East 577 664 37,000  Level FlightAware ADS-B
Wed 12:03:42 AM 61.1750 0.2620 105° East 37,000  Level FlightAware ADS-B
Wed 12:04:22 AM 61.1460 0.4560 107° East 566 651 37,000  Level FlightAware ADS-B
Wed 12:05:07 AM 61.1070 0.7040 108° East 562 647 37,000  Level FlightAware ADS-B
Wed 12:05:52 AM 61.0720 0.9320 108° East 562 647 37,000  Level FlightAware ADS-B
Wed 12:06:32 AM 61.0510 1.1440 101° East 569 655 37,000  Level FlightAware ADS-B
Wed 12:07:12 AM 61.0410 1.3580 95° East 570 656 37,000  Level FlightAware ADS-B
Wed 12:07:57 AM 61.0330 1.6040 94° East 569 655 37,000  Level FlightAware ADS-B
Wed 12:08:37 AM 61.0250 1.8170 94° East 568 654 37,000  Level FlightAware ADS-B
Wed 12:09:22 AM 61.0150 2.0580 95° East 567 652 37,000  Level FlightAware ADS-B
Wed 12:10:02 AM 61.0060 2.2760 95° East 566 651 37,000  Level FlightAware ADS-B
Wed 12:10:42 AM 60.9980 2.4850 94° East 565 650 37,000  Level FlightAware ADS-B
Wed 12:11:12 AM 60.9910 2.6490 95° East 564 649 37,000  Level FlightAware ADS-B
Wed 12:11:57 AM 60.9800 2.8870 95° East 565 650 37,000  Level FlightAware ADS-B
Wed 12:14:00 AM 60.9725 3.4720 91° East  Level Estimated
Wed 12:15:00 AM 60.9678 3.7572 92° East  Level Estimated
Wed 12:16:00 AM 60.9627 4.0424 92° East  Level Estimated
Wed 12:17:00 AM 60.9568 4.3274 92° East  Level Estimated
Wed 12:18:00 AM 60.9504 4.6124 93° East  Level Estimated
Wed 12:19:00 AM 60.9434 4.8972 93° East  Level Estimated
Wed 12:20:00 AM 60.9358 5.1819 93° East  Level Estimated
Wed 12:20:17 AM 60.8310 5.5540 93° East 579 666 37,000  Level FlightAware ADS-B
Wed 12:21:02 AM 60.8150 5.7990 98° East 581 669 37,000  Level FlightAware ADS-B
Wed 12:21:32 AM 60.8030 5.9730 98° East 580 667 37,000  Level FlightAware ADS-B
Wed 12:22:22 AM 60.7830 6.2510 98° East 579 666 37,000  Level FlightAware ADS-B
Wed 12:23:07 AM 60.7660 6.4940 98° East 578 665 37,000  Level FlightAware ADS-B
Wed 12:23:47 AM 60.7500 6.7040 99° East 579 666 37,000  Level FlightAware ADS-B
Wed 12:26:00 AM 60.7262 7.3302 94° East  Level Estimated
Wed 12:26:37 AM 60.6790 7.6120 94° East 577 664 37,000  Level FlightAware ADS-B
Wed 12:27:17 AM 60.6610 7.8260 100° East 574 661 37,000  Level FlightAware ADS-B
Wed 12:27:57 AM 60.6430 8.0380 100° East 573 659 37,000  Level FlightAware ADS-B
Wed 12:28:42 AM 60.6230 8.2760 100° East 573 659 37,000  Level FlightAware ADS-B
Wed 12:29:22 AM 60.6040 8.4850 100° East 570 656 37,000  Level FlightAware ADS-B
Wed 12:30:07 AM 60.5830 8.7230 100° East 568 654 37,000  Level FlightAware ADS-B
Wed 12:30:47 AM 60.5640 8.9310 100° East 565 650 37,000  Level FlightAware ADS-B
Wed 12:31:32 AM 60.5420 9.1600 101° East 561 646 37,000  Level FlightAware ADS-B
Wed 12:32:12 AM 60.5230 9.3680 100° East 555 639 37,000  Level FlightAware ADS-B
Wed 12:32:57 AM 60.5000 9.5980 101° East 555 639 37,000  Level FlightAware ADS-B
Wed 12:33:37 AM 60.4800 9.8020 101° East 554 638 37,000  Level FlightAware ADS-B
Wed 12:34:17 AM 60.4600 10.0050 101° East 554 638 37,000  Level FlightAware ADS-B
Wed 12:35:02 AM 60.4370 10.2300 102° East 553 636 37,000  Level FlightAware ADS-B
Wed 12:35:42 AM 60.4160 10.4310 102° East 552 635 37,000  Level FlightAware ADS-B
Wed 12:36:27 AM 60.3920 10.6580 102° East 554 638 37,000  Level FlightAware ADS-B
Wed 12:37:07 AM 60.3700 10.8610 102° East 556 640 37,000  Level FlightAware ADS-B
Wed 12:37:52 AM 60.3460 11.0890 102° East 558 642 37,000  Level FlightAware ADS-B
Wed 12:38:32 AM 60.3230 11.2910 103° East 561 646 37,000  Level FlightAware ADS-B
Wed 12:39:12 AM 60.3000 11.4930 103° East 565 650 37,000  Level FlightAware ADS-B
Wed 12:39:57 AM 60.2740 11.7270 103° East 570 656 37,000  Level FlightAware ADS-B
Wed 12:40:37 AM 60.2500 11.9320 103° East 571 657 37,000  Level FlightAware ADS-B
Wed 12:41:17 AM 60.2250 12.1390 104° East 573 659 37,000  Level FlightAware ADS-B
Wed 12:42:02 AM 60.1980 12.3710 103° East 576 663 37,000  Level FlightAware ADS-B
Wed 12:42:42 AM 60.1760 12.5780 102° East 577 664 37,000  Level FlightAware ADS-B
Wed 12:43:22 AM 60.1620 12.7730 98° East 574 661 37,000  Level FlightAware ADS-B
Wed 12:44:07 AM 60.1450 13.0400 97° East 573 659 37,000  Level FlightAware ADS-B
Wed 12:44:52 AM 60.1290 13.2800 98° East 574 661 37,000  Level FlightAware ADS-B
Wed 12:45:32 AM 60.1090 13.4920 101° East 575 662 37,000  Level FlightAware ADS-B
Wed 12:46:12 AM 60.0850 13.6960 103° East 576 663 37,000  Level FlightAware ADS-B
Wed 12:46:52 AM 60.0590 13.9040 104° East 575 662 37,000  Level FlightAware ADS-B
Wed 12:47:37 AM 60.0290 14.1290 105° East 574 661 37,000  Level FlightAware ADS-B
Wed 12:48:17 AM 60.0020 14.3340 105° East 572 658 37,000  Level FlightAware ADS-B
Wed 12:49:02 AM 59.9700 14.5690 105° East 573 659 37,000  Level FlightAware ADS-B
Wed 12:49:42 AM 59.9430 14.7630 105° East 572 658 37,000  Level FlightAware ADS-B
Wed 12:50:22 AM 59.9130 14.9710 106° East 572 658 37,000  Level FlightAware ADS-B
Wed 12:51:07 AM 59.8820 15.1920 106° East 571 657 37,000  Level FlightAware ADS-B
Wed 12:51:47 AM 59.8530 15.3940 106° East 570 656 37,000  Level FlightAware ADS-B
Wed 12:52:32 AM 59.8190 15.6260 106° East 568 654 37,000  Level FlightAware ADS-B
Wed 12:53:12 AM 59.7890 15.8270 106° East 567 652 37,000  Level FlightAware ADS-B
Wed 12:53:52 AM 59.7590 16.0260 107° East 565 650 37,000  Level FlightAware ADS-B
Wed 12:54:37 AM 59.7260 16.2400 107° East 564 649 37,000  Level FlightAware ADS-B
Wed 12:55:17 AM 59.6960 16.4400 106° East 564 649 37,000  Level FlightAware ADS-B
Wed 12:56:02 AM 59.6600 16.6670 107° East 562 647 37,000  Level FlightAware ADS-B
Wed 12:56:42 AM 59.6300 16.8620 107° East 560 644 37,000  Level FlightAware ADS-B
Wed 12:57:22 AM 59.6010 17.0460 107° East 561 646 37,000  Level FlightAware ADS-B
Wed 12:58:07 AM 59.5640 17.2710 108° East 559 643 37,000  Level FlightAware ADS-B
Wed 12:58:47 AM 59.5320 17.4660 108° East 561 646 37,000  Level FlightAware ADS-B
Wed 12:59:32 AM 59.4970 17.6800 108° East 559 643 37,000  Level FlightAware ADS-B
Wed 01:00:12 AM 59.4650 17.8710 108° East 558 642 37,000  Level FlightAware ADS-B
Wed 01:00:52 AM 59.4330 18.0630 108° East 556 640 37,000  Level FlightAware ADS-B
Wed 01:01:37 AM 59.3950 18.2840 109° East 554 638 37,000  Level FlightAware ADS-B
Wed 01:02:17 AM 59.3620 18.4740 109° East 554 638 37,000  Level FlightAware ADS-B
Wed 01:03:02 AM 59.3260 18.6790 109° East 554 638 37,000  Level FlightAware ADS-B
Wed 01:03:42 AM 59.2930 18.8700 109° East 553 636 37,000  Level FlightAware ADS-B
Wed 01:04:22 AM 59.2600 19.0560 109° East 554 638 37,000  Level FlightAware ADS-B
Wed 01:05:07 AM 59.2210 19.2720 109° East 552 635 37,000  Level FlightAware ADS-B
Wed 01:05:47 AM 59.1860 19.4620 110° East 552 635 37,000  Level FlightAware ADS-B
Wed 01:06:32 AM 59.1490 19.6650 109° East 551 634 37,000  Level FlightAware ADS-B
Wed 01:07:12 AM 59.1140 19.8500 110° East 549 632 37,000  Level FlightAware ADS-B
Wed 01:07:52 AM 59.0790 20.0390 110° East 551 634 37,000  Level FlightAware ADS-B
Wed 01:08:37 AM 59.0390 20.2490 110° East 551 634 37,000  Level FlightAware ADS-B
Wed 01:09:17 AM 59.0040 20.4340 110° East 550 633 37,000  Level FlightAware ADS-B
Wed 01:09:57 AM 58.9680 20.6180 111° Southeast 551 634 37,000  Level FlightAware ADS-B
Wed 01:10:42 AM 58.9290 20.8190 111° Southeast 551 634 37,000  Level FlightAware ADS-B
Wed 01:11:27 AM 58.8940 21.0370 107° East 553 636 37,000  Level FlightAware ADS-B
Wed 01:12:07 AM 58.8680 21.2300 105° East 553 636 37,000  Level FlightAware ADS-B
Wed 01:12:47 AM 58.8430 21.4180 104° East 553 636 37,000  Level FlightAware ADS-B
Wed 01:13:32 AM 58.8140 21.6310 105° East 554 638 37,000  Level FlightAware ADS-B
Wed 01:14:12 AM 58.7890 21.8140 105° East 555 639 37,000  Level FlightAware ADS-B
Wed 01:14:52 AM 58.7610 22.0090 105° East 555 639 37,000  Level FlightAware ADS-B
Wed 01:15:37 AM 58.7300 22.2270 105° East 556 640 37,000  Level FlightAware ADS-B
Wed 01:16:17 AM 58.7020 22.4210 105° East 555 639 37,000  Level FlightAware ADS-B
Wed 01:17:02 AM 58.6710 22.6260 106° East 555 639 37,000  Level FlightAware ADS-B
Wed 01:17:42 AM 58.6430 22.8180 106° East 556 640 37,000  Level FlightAware ADS-B
Wed 01:18:22 AM 58.6150 23.0050 106° East 556 640 37,000  Level FlightAware ADS-B
Wed 01:19:07 AM 58.5830 23.2160 106° East 556 640 37,000  Level FlightAware ADS-B
Wed 01:19:47 AM 58.5540 23.4030 106° East 556 640 37,000  Level FlightAware ADS-B
Wed 01:20:27 AM 58.5240 23.5940 107° East 557 641 37,000  Level FlightAware ADS-B
Wed 01:21:12 AM 58.4900 23.8110 107° East 559 643 37,000  Level FlightAware ADS-B
Wed 01:21:52 AM 58.4600 23.9990 107° East 562 647 37,000  Level FlightAware ADS-B
Wed 01:22:37 AM 58.4260 24.2090 107° East 563 648 37,000  Level FlightAware ADS-B
Wed 01:23:17 AM 58.3960 24.3950 107° East 563 648 37,000  Level FlightAware ADS-B
Wed 01:23:57 AM 58.3650 24.5830 107° East 562 647 37,000  Level FlightAware ADS-B
Wed 01:24:42 AM 58.3280 24.8040 108° East 564 649 37,000  Level FlightAware ADS-B
Wed 01:25:22 AM 58.2980 24.9830 108° East 562 647 37,000  Level FlightAware ADS-B
Wed 01:26:02 AM 58.2670 25.1670 108° East 561 646 37,000  Level FlightAware ADS-B
Wed 01:26:47 AM 58.2310 25.3780 108° East 557 641 37,000  Level FlightAware ADS-B
Wed 01:27:27 AM 58.1980 25.5640 109° East 555 639 37,000  Level FlightAware ADS-B
Wed 01:28:12 AM 58.1620 25.7710 108° East 554 638 37,000  Level FlightAware ADS-B
Wed 01:28:52 AM 58.1290 25.9550 109° East 554 638 37,000  Level FlightAware ADS-B
Wed 01:29:37 AM 58.0930 26.1570 109° East 552 635 37,000  Level FlightAware ADS-B
Wed 01:30:17 AM 58.0600 26.3410 109° East 553 636 37,000  Level FlightAware ADS-B
Wed 01:30:57 AM 58.0260 26.5240 109° East 552 635 37,000  Level FlightAware ADS-B
Wed 01:31:42 AM 57.9890 26.7260 109° East 553 636 37,000  Level FlightAware ADS-B
Wed 01:32:22 AM 57.9550 26.9060 110° East 552 635 37,000  Level FlightAware ADS-B
Wed 01:33:07 AM 57.9160 27.1120 110° East 552 635 37,000  Level FlightAware ADS-B
Wed 01:33:52 AM 57.8770 27.3150 110° East 551 634 37,000  Level FlightAware ADS-B
Wed 01:34:32 AM 57.8420 27.4930 110° East 551 634 37,000  Level FlightAware ADS-B
Wed 01:35:12 AM 57.7920 27.6590 119° Southeast 549 632 37,000  Level FlightAware ADS-B
Wed 01:35:57 AM 57.7340 27.8420 121° Southeast 549 632 37,000  Level FlightAware ADS-B
Wed 01:36:37 AM 57.6820 28.0000 122° Southeast 549 632 37,000  Level FlightAware ADS-B
Wed 01:37:22 AM 57.6220 28.1810 122° Southeast 548 631 37,000  Level FlightAware ADS-B
Wed 01:38:02 AM 57.5670 28.3420 122° Southeast 545 627 37,000  Level FlightAware ADS-B
Wed 01:38:47 AM 57.5070 28.5200 122° Southeast 545 627 37,000  Level FlightAware ADS-B
Wed 01:39:27 AM 57.4530 28.6760 123° Southeast 546 628 37,000  Level FlightAware ADS-B
Wed 01:40:07 AM 57.3980 28.8340 123° Southeast 547 629 37,000  Level FlightAware ADS-B
Wed 01:40:52 AM 57.3380 29.0050 123° Southeast 547 629 37,000  Level FlightAware ADS-B
Wed 01:41:32 AM 57.2810 29.1690 123° Southeast 546 628 37,000  Level FlightAware ADS-B
Wed 01:42:12 AM 57.2310 29.3110 123° Southeast 547 629 37,000  Level FlightAware ADS-B
Wed 01:42:57 AM 57.1690 29.4860 123° Southeast 546 628 37,000  Level FlightAware ADS-B
Wed 01:43:37 AM 57.1090 29.6520 124° Southeast 546 628 37,000  Level FlightAware ADS-B
Wed 01:44:17 AM 57.0630 29.7840 123° Southeast 547 629 37,000  Level FlightAware ADS-B
Wed 01:44:57 AM 57.0160 29.9170 123° Southeast 547 629 37,000  Level FlightAware ADS-B
Wed 01:45:37 AM 56.9690 30.0490 123° Southeast 547 629 37,000  Level FlightAware ADS-B
Wed 01:46:27 AM 56.8720 30.3040 125° Southeast 546 628 37,000  Level FlightAware ADS-B
Wed 01:47:07 AM 56.8160 30.4570 124° Southeast 546 628 37,000  Level FlightAware ADS-B
Wed 01:47:52 AM 56.7540 30.6240 124° Southeast 547 629 37,000  Level FlightAware ADS-B
Wed 01:48:32 AM 56.7030 30.7600 124° Southeast 546 628 37,000  Level FlightAware ADS-B
Wed 01:49:12 AM 56.6550 30.8890 124° Southeast 546 628 37,000  Level FlightAware ADS-B
Wed 01:49:52 AM 56.6070 31.0190 124° Southeast 546 628 37,000  Level FlightAware ADS-B
Wed 01:50:32 AM 56.5590 31.1480 124° Southeast 546 628 37,000  Level FlightAware ADS-B
Wed 01:51:12 AM 56.5110 31.2770 124° Southeast 546 628 37,000  Level FlightAware ADS-B
Wed 01:52:02 AM 56.4510 31.4380 124° Southeast 546 628 37,000  Level FlightAware ADS-B
Wed 01:52:42 AM 56.3310 31.7000 129° Southeast 543 625 37,000  Level FlightAware ADS-B
Wed 01:53:22 AM 56.2760 31.8500 123° Southeast 543 625 37,000  Level FlightAware ADS-B
Wed 01:54:07 AM 56.2140 32.0190 123° Southeast 541 623 37,000  Level FlightAware ADS-B
Wed 01:54:52 AM 56.1520 32.1880 123° Southeast 540 621 37,000  Level FlightAware ADS-B
Wed 01:55:27 AM 56.1020 32.3150 125° Southeast 540 621 37,000  Level FlightAware ADS-B
Wed 01:56:12 AM 56.0470 32.4530 125° Southeast 538 619 37,000  Level FlightAware ADS-B
Wed 01:56:57 AM 55.9720 32.6420 125° Southeast 538 619 37,000  Level FlightAware ADS-B
Wed 01:57:37 AM 55.9160 32.7850 125° Southeast 536 617 37,000  Level FlightAware ADS-B
Wed 01:58:22 AM 55.8570 32.9550 122° Southeast 536 617 37,000  Level FlightAware ADS-B
Wed 01:59:02 AM 55.8290 33.1250 106° East 536 617 37,000  Level FlightAware ADS-B
Wed 01:59:42 AM 55.8060 33.2940 104° East 535 616 37,000 -141 Level FlightAware ADS-B
Wed 02:00:27 AM 55.7800 33.4820 104° East 539 620 36,800 -494 Descending FlightAware ADS-B
Wed 02:01:07 AM 55.7560 33.6580 104° East 544 626 36,300 -1,341 Descending FlightAware ADS-B
Wed 02:01:52 AM 55.7270 33.8620 104° East 554 638 34,900 -1,976 Descending FlightAware ADS-B
Wed 02:02:32 AM 55.7020 34.0380 104° East 550 633 33,500 -2,175 Descending FlightAware ADS-B
Wed 02:03:12 AM 55.6760 34.2130 105° East 555 639 32,000 -2,188 Descending FlightAware ADS-B
Wed 02:03:57 AM 55.6480 34.4080 104° East 544 626 30,400 -1,976 Descending FlightAware ADS-B
Wed 02:04:37 AM 55.6220 34.5780 105° East 532 612 29,200 -1,050 Descending FlightAware ADS-B
Wed 02:05:17 AM 55.5980 34.7390 105° East 515 593 29,000 -141 Descending FlightAware ADS-B
Wed 02:06:02 AM 55.5700 34.9260 105° East 517 595 29,000  Level FlightAware ADS-B
Wed 02:06:42 AM 55.5690 35.0950 91° East 511 588 29,000 -424 Level FlightAware ADS-B
Wed 02:07:27 AM 55.5960 35.2680 74° East 497 572 28,400 -1,271 Descending FlightAware ADS-B
Wed 02:08:07 AM 55.6220 35.4200 73° East 484 557 27,200 -1,875 Descending FlightAware ADS-B
Wed 02:08:47 AM 55.6480 35.5710 73° East 473 544 25,900 -1,906 Descending FlightAware ADS-B
Wed 02:09:32 AM 55.6760 35.7390 73° East 463 533 24,500 -1,271 Descending FlightAware ADS-B
Wed 02:10:12 AM 55.6980 35.8770 74° East 433 498 24,100 -1,050 Descending FlightAware ADS-B
Wed 02:10:52 AM 55.7190 36.0090 74° East 420 483 23,100 -1,624 Descending FlightAware ADS-B
Wed 02:11:37 AM 55.7440 36.1580 73° East 412 474 21,800 -1,694 Descending FlightAware ADS-B
Wed 02:12:17 AM 55.7650 36.2900 74° East 406 467 20,700 -1,694 Descending FlightAware ADS-B
Wed 02:13:02 AM 55.7870 36.4310 74° East 400 460 19,400 -1,624 Descending FlightAware ADS-B
Wed 02:13:42 AM 55.8070 36.5570 74° East 389 448 18,400 -1,412 Descending FlightAware ADS-B
Wed 02:14:27 AM 55.8280 36.6930 75° East 374 430 17,400 -1,482 Descending FlightAware ADS-B
Wed 02:15:07 AM 55.8470 36.8110 74° East 374 430 16,300 -1,350 Descending FlightAware ADS-B
Wed 02:15:47 AM 55.8660 36.9260 74° East 373 429 15,600 -1,200 Descending FlightAware ADS-B
Wed 02:16:32 AM 55.8950 37.0580 69° East 378 435 14,600 -988 Descending FlightAware ADS-B
Wed 02:17:12 AM 55.9200 37.1660 68° East 356 410 14,200 -1,200 Descending FlightAware ADS-B
Wed 02:17:52 AM 55.9450 37.2750 68° East 347 399 13,000 -1,543 Descending FlightAware ADS-B
Wed 02:18:22 AM 55.9580 37.3560 74° East 329 379 12,400 -1,371 Descending FlightAware ADS-B
Wed 02:19:02 AM 55.9500 37.4570 98° East 320 368 11,400 -1,200 Descending FlightAware ADS-B
Wed 02:19:47 AM 55.9360 37.5720 102° East 299 344 10,700 -918 Descending FlightAware ADS-B
Wed 02:20:27 AM 55.9250 37.6670 102° East 297 342 10,100 -686 Descending FlightAware ADS-B
Wed 02:20:57 AM 55.9150 37.7350 105° East 281 323 9,900 -800 Descending FlightAware ADS-B
Wed 02:21:12 AM 55.9060 37.7650 118° Southeast 264 304 9,500 -1,650 Descending FlightAware ADS-B
Wed 02:21:37 AM 55.8870 37.8050 130° Southeast 252 290 8,800 -1,650 Descending FlightAware ADS-B
Wed 02:21:52 AM 55.8760 37.8310 127° Southeast 249 287 8,400 -1,400 Descending FlightAware ADS-B
Wed 02:22:07 AM 55.8640 37.8510 137° Southeast 240 276 8,100 -1,200 Descending FlightAware ADS-B
Wed 02:22:22 AM 55.8520 37.8620 153° Southeast 227 261 7,800 -1,050 Descending FlightAware ADS-B
Wed 02:22:47 AM 55.8230 37.8650 177° South 220 253 7,400 -1,000 Descending FlightAware ADS-B
Wed 02:22:52 AM 55.8200 37.8660 169° South 219 252 7,300 -1,114 Descending FlightAware ADS-B
Wed 02:25:00 AM 55.5250 37.8950 177° South  Level Estimated
Wed 02:26:00 AM 55.4088 37.9063 177° South  Level Estimated
Wed 02:26:17 AM 55.6300 37.8320 177° South 163 188 3,500  Level FlightAware ADS-B
Wed 02:26:32 AM 55.6230 37.8150 234° Southwest 168 193 3,000 -1,333 Descending FlightAware ADS-B
Wed 02:27:02 AM 55.6090 37.7830 232° Southwest 168 193 2,500 -655 Descending FlightAware ADS-B
Wed 02:27:27 AM 55.5970 37.7570 231° Southwest 149 171 2,400 -109 Descending FlightAware ADS-B
Wed 02:27:57 AM 55.5820 37.7370 217° Southwest 150 173 2,400  Level FlightAware ADS-B
Wed 02:28:12 AM 55.5710 37.7420 166° South 157 181 2,400  Level FlightAware ADS-B
Wed 02:28:37 AM 55.5550 37.7550 155° Southeast 156 180 2,400  Level FlightAware ADS-B
Wed 02:29:07 AM 55.5350 37.7730 153° Southeast 164 189 2,400  Level FlightAware ADS-B
Wed 02:29:32 AM 55.5200 37.7920 144° Southeast 167 192 2,400  Level FlightAware ADS-B
Wed 02:30:02 AM 55.5030 37.8120 146° Southeast 146 168 2,400 -109 Level FlightAware ADS-B
Wed 02:30:27 AM 55.4890 37.8290 145° Southeast 128 147 2,300 -400 Descending FlightAware ADS-B
Wed 02:30:47 AM 55.4790 37.8410 146° Southeast 119 137 2,100 -667 Descending FlightAware ADS-B
Wed 02:31:12 AM 55.4680 37.8540 146° Southeast 123 142 1,800 -655 Descending FlightAware ADS-B
Wed 02:31:42 AM 55.4540 37.8710 145° Southeast 119 137 1,500 -655 Descending FlightAware ADS-B
Wed 02:32:07 AM 55.4440 37.8830 146° Southeast 121 139 1,200 -720 Descending FlightAware ADS-B
Wed 02:32:32 AM 55.4310 37.8990 145° Southeast 129 148 900 -436 Descending FlightAware ADS-B
Wed 02:33:02 AM 55.4170 37.9150 147° Southeast 129 148 800 -200 Descending FlightAware ADS-B
Wed 02:35:00 AM 55.4088 37.9063 66° East  Level Estimated
Wed 02:36:00 AM 55.4088 37.9063 66° East  Level Estimated
Wed 02:37:00 AM 55.4088 37.9063 66° East  Level Estimated
Wed 02:38:00 AM 55.4088 37.9063 66° East  Level Estimated
Wed 02:39:00 AM 55.4088 37.9063 66° East  Level Estimated
Wed 02:40:00 AM 55.4088 37.9063 66° East  Level Estimated
Wed 02:41:00 AM 55.4088 37.9063 66° East  Level Estimated
Wed 02:42:00 AM 55.4088 37.9063 66° East  Level Estimated
Wed 02:43:00 AM 55.4088 37.9063 66° East  Level Estimated
Wed 02:44:00 AM 55.4088 37.9063 66° East  Level Estimated
Wed 02:45:00 AM 55.4088 37.9063 66° East  Level Estimated
Wed 02:46:00 AM 55.4088 37.9063 66° East  Level Estimated
Wed 02:47:00 AM 55.4088 37.9063 66° East  Level Estimated
Wed 02:48:00 AM 55.4088 37.9063 66° East  Level Estimated
Wed 02:49:00 AM 55.4088 37.9063 66° East  Level Estimated
Wed 02:50:00 AM 55.4088 37.9063 66° East  Level Estimated
Wed 02:51:00 AM 55.4088 37.9063 66° East  Level Estimated
Wed 02:52:00 AM 55.4088 37.9063 66° East  Level Estimated
Wed 02:53:00 AM 55.4088 37.9063 66° East  Level Estimated
Wed 02:54:00 AM 55.4088 37.9063 66° East  Level Estimated
Wed 02:55:00 AM 55.4088 37.9063 66° East  Level Estimated
Wed 02:56:00 AM 55.4088 37.9063 66° East  Level Estimated
Wed 02:57:00 AM 55.4088 37.9063 66° East  Level Estimated
Wed 02:58:00 AM 55.4088 37.9063 66° East  Level Estimated
Wed 02:59:00 AM 55.4088 37.9063 66° East  Level Estimated
Wed 03:00:00 AM 55.4088 37.9063 66° East  Level Estimated
Wed 03:01:00 AM 55.4088 37.9063 66° East  Level Estimated
Wed 03:02:00 AM 55.4088 37.9063 66° East  Level Estimated
Wed 03:03:00 AM 55.4088 37.9063 66° East  Level Estimated
Wed 03:04:00 AM 55.4088 37.9063 66° East  Level Estimated
Wed 03:05:00 AM 55.4088 37.9063 66° East  Level Estimated
Wed 03:06:00 AM 55.4088 37.9063 66° East  Level Estimated
Wed 03:07:00 AM 55.4088 37.9063 66° East  Level Estimated
Wed 03:08:00 AM 55.4088 37.9063 66° East  Level Estimated
Wed 03:09:00 AM 55.4088 37.9063 66° East  Level Estimated
Wed 03:10:00 AM 55.4088 37.9063 66° East  Level Estimated
Wed 03:11:00 AM 55.4088 37.9063 66° East  Level Estimated
Wed 03:12:00 AM 55.4088 37.9063 66° East  Level Estimated
Wed 03:13:00 AM 55.4088 37.9063 66° East  Level Estimated
Wed 03:14:00 AM 55.4088 37.9063 66° East  Level Estimated
Wed 03:15:00 AM 55.4088 37.9063 66° East  Level Estimated
Wed 03:16:00 AM 55.4088 37.9063 66° East  Level Estimated
Wed 03:17:00 AM 55.4088 37.9063 66° East  Level Estimated
Wed 03:18:00 AM 55.4088 37.9063 66° East  Level Estimated
Wed 03:19:00 AM 55.4088 37.9063 66° East  Level Estimated
Wed 03:20:00 AM 55.4088 37.9063 66° East  Level Estimated
Wed 03:21:00 AM 55.4088 37.9063 66° East  Level Estimated
Wed 03:22:00 AM 55.4088 37.9063 66° East  Level Estimated
Wed 03:23:00 AM 55.4088 37.9063 66° East  Level Estimated
Wed 03:24:00 AM 55.4088 37.9063 66° East  Level Estimated
Wed 03:25:00 AM 55.4088 37.9063 66° East  Level Estimated
Wed 03:26:00 AM 55.4088 37.9063 66° East  Level Estimated
Wed 03:27:00 AM 55.4088 37.9063 66° East  Level Estimated
Wed 03:28:00 AM 55.4088 37.9063 66° East  Level Estimated
Wed 03:29:00 AM 55.4088 37.9063 66° East  Level Estimated
Wed 03:30:00 AM 55.4088 37.9063 66° East  Level Estimated
Wed 03:31:00 AM 55.4088 37.9063 66° East  Level Estimated
Wed 03:32:00 AM 55.4088 37.9063 66° East  Level Estimated
Wed 03:33:00 AM 55.4088 37.9063 66° East  Level Estimated
Wed 03:34:00 AM 55.4088 37.9063 66° East  Level Estimated
Wed 03:35:00 AM 55.4088 37.9063 66° East  Level Estimated
Wed 03:36:00 AM 55.4088 37.9063 66° East  Level Estimated
Wed 03:37:00 AM 55.4088 37.9063 66° East  Level Estimated
Wed 03:38:00 AM 55.4088 37.9063 66° East  Level Estimated
Wed 03:39:00 AM 55.4088 37.9063 66° East  Level Estimated
Wed 03:40:00 AM 55.4088 37.9063 66° East  Level Estimated
Wed 03:41:00 AM 55.4088 37.9063 66° East  Level Estimated
Wed 03:42:00 AM 55.4088 37.9063 66° East  Level Estimated
Wed 03:43:00 AM 55.4088 37.9063 66° East  Level Estimated
Wed 03:44:00 AM 55.4088 37.9063 66° East  Level Estimated
Wed 03:45:00 AM 55.4088 37.9063 66° East  Level Estimated
Wed 03:46:00 AM 55.4088 37.9063 66° East  Level Estimated
Wed 03:47:00 AM 55.4088 37.9063 66° East  Level Estimated
Wed 03:48:00 AM 55.4088 37.9063 66° East  Level Estimated
Wed 03:49:00 AM 55.4088 37.9063 66° East  Level Estimated
Wed 03:50:00 AM 55.4088 37.9063 66° East  Level Estimated
Wed 03:51:00 AM 55.4088 37.9063 66° East  Level Estimated
Wed 03:52:00 AM 55.4088 37.9063 66° East  Level Estimated

Login

Don't have an account? Register now (free) for customized features, flight alerts, and more!